Time;durP1;ratioP1;P1;durP2;ratioP2;P2;SDS_P1;SDS_P2;PMS_P1;PMS_P2;Temp;Humidity;BMP_temperature;BMP_pressure;BME280_temperature;BME280_humidity;BME280_pressure;Samples;Min_cycle;Max_cycle;Signal;HPM_P1;HPM_P2
2022/06/13 00:00:09;;;;;;;12.13;4.78;;;14.20;99.90;;;;;;5036042;28;20044;-81
2022/06/13 00:02:35;;;;;;;11.48;5.25;;;14.20;99.90;;;;;;5052751;28;20124;-81
2022/06/13 00:05:02;;;;;;;9.25;4.57;;;14.20;99.90;;;;;;5035262;28;20084;-82
2022/06/13 00:07:27;;;;;;;11.93;5.55;;;14.20;99.90;;;;;;5052427;28;20116;-81
2022/06/13 00:09:53;;;;;;;14.48;5.07;;;14.10;99.90;;;;;;5036031;28;20112;-81
2022/06/13 00:12:19;;;;;;;11.13;4.80;;;14.10;99.90;;;;;;5052508;28;20170;-81
2022/06/13 00:14:44;;;;;;;10.95;4.97;;;14.00;99.90;;;;;;5051471;28;20106;-80
2022/06/13 00:17:10;;;;;;;14.50;5.50;;;14.00;99.90;;;;;;5052145;28;20037;-82
2022/06/13 00:19:36;;;;;;;12.32;4.43;;;14.00;99.90;;;;;;5052515;28;20040;-81
2022/06/13 00:22:03;;;;;;;13.70;5.07;;;13.90;99.90;;;;;;5052303;28;20059;-81
2022/06/13 00:24:29;;;;;;;13.80;4.75;;;13.90;99.90;;;;;;5051260;28;20731;-81
2022/06/13 00:26:54;;;;;;;15.07;5.07;;;13.90;99.90;;;;;;5052285;28;20094;-81
2022/06/13 00:29:20;;;;;;;14.23;5.15;;;13.90;99.90;;;;;;5052359;28;20036;-81
2022/06/13 00:31:45;;;;;;;11.30;4.72;;;13.90;99.90;;;;;;5052416;28;20039;-81
2022/06/13 00:34:11;;;;;;;11.68;4.95;;;13.90;99.90;;;;;;5051030;28;20036;-81
2022/06/13 00:36:36;;;;;;;13.25;4.80;;;13.90;99.90;;;;;;5052062;28;20041;-81
2022/06/13 00:39:03;;;;;;;11.20;4.72;;;14.00;99.90;;;;;;5052177;28;20099;-81
2022/06/13 00:41:36;;;;;;;12.48;4.95;;;14.00;99.90;;;;;;5035110;28;20040;-81
2022/06/13 00:44:27;;;;;;;14.35;5.30;;;13.90;99.90;;;;;;5051411;28;20067;-81
2022/06/13 00:46:53;;;;;;;10.77;4.85;;;14.00;99.90;;;;;;5021057;28;20140;-81
2022/06/13 00:49:43;;;;;;;10.27;5.10;;;14.00;99.90;;;;;;5049509;28;20148;-82
2022/06/13 00:52:21;;;;;;;11.68;5.25;;;14.10;99.90;;;;;;5023211;28;20045;-81
2022/06/13 00:54:49;;;;;;;11.15;4.70;;;14.10;99.90;;;;;;5043836;28;20076;-82
2022/06/13 00:57:23;;;;;;;11.02;4.43;;;14.10;99.90;;;;;;5046255;28;20091;-82
2022/06/13 00:59:55;;;;;;;9.43;4.68;;;14.00;99.90;;;;;;5047215;28;20479;-81
2022/06/13 01:02:21;;;;;;;11.02;4.72;;;14.00;99.90;;;;;;5043395;28;20033;-80
2022/06/13 01:04:51;;;;;;;12.13;5.22;;;14.00;99.90;;;;;;5046429;28;20049;-81
2022/06/13 01:07:18;;;;;;;10.25;4.78;;;14.00;99.90;;;;;;5045527;28;20048;-80
2022/06/13 01:12:29;;;;;;;12.13;5.05;;;14.10;99.90;;;;;;5046029;28;21693;-81
2022/06/13 01:15:28;;;;;;;14.20;4.93;;;14.00;99.90;;;;;;5044747;28;20045;-81
2022/06/13 01:18:31;;;;;;;10.20;5.03;;;14.00;99.90;;;;;;5044780;28;20045;-82
2022/06/13 01:21:08;;;;;;;12.38;4.78;;;14.00;99.90;;;;;;5029123;28;20036;-82
2022/06/13 01:23:49;;;;;;;10.63;4.47;;;14.00;99.90;;;;;;5041826;28;20060;-82
2022/06/13 01:26:34;;;;;;;13.57;4.57;;;13.90;99.90;;;;;;5044791;28;20052;-82
2022/06/13 01:29:31;;;;;;;12.45;5.38;;;13.90;99.90;;;;;;5043143;28;20071;-81
2022/06/13 01:32:22;;;;;;;11.98;4.75;;;13.90;99.90;;;;;;5044552;28;20082;-81
2022/06/13 01:35:29;;;;;;;18.02;5.72;;;13.90;99.90;;;;;;5043244;28;20044;-81
2022/06/13 01:38:23;;;;;;;14.32;5.32;;;13.90;99.90;;;;;;5041856;28;20111;-80
2022/06/13 01:41:07;;;;;;;12.63;5.15;;;13.90;99.90;;;;;;5045666;28;20569;-81
2022/06/13 01:44:17;;;;;;;12.73;5.07;;;13.90;99.90;;;;;;5028942;28;20120;-81
2022/06/13 01:46:49;;;;;;;14.00;5.63;;;13.90;99.90;;;;;;5043655;28;20044;-81
2022/06/13 01:49:40;;;;;;;15.35;5.50;;;13.80;99.90;;;;;;5028815;28;20029;-81
2022/06/13 01:52:25;;;;;;;13.82;5.15;;;13.80;99.90;;;;;;5046890;28;20068;-81
2022/06/13 01:55:01;;;;;;;11.35;5.30;;;13.70;99.90;;;;;;5029423;28;20120;-81
2022/06/13 01:57:43;;;;;;;10.90;4.40;;;13.70;99.90;;;;;;5040977;28;20040;-81
2022/06/13 02:00:14;;;;;;;14.50;5.72;;;13.70;99.90;;;;;;5044269;28;20051;-81
2022/06/13 02:02:58;;;;;;;13.23;5.32;;;13.70;99.90;;;;;;5044712;28;20041;-81
2022/06/13 02:05:36;;;;;;;15.40;5.05;;;13.70;99.90;;;;;;5044501;28;20507;-80
2022/06/13 02:08:19;;;;;;;12.65;5.40;;;13.60;99.90;;;;;;5045150;28;20075;-81
2022/06/13 02:10:52;;;;;;;14.88;5.97;;;13.70;99.90;;;;;;5045345;28;20079;-81
2022/06/13 02:13:28;;;;;;;12.88;5.47;;;13.70;99.90;;;;;;5044415;28;20033;-80
2022/06/13 02:15:58;;;;;;;13.63;6.50;;;13.70;99.90;;;;;;5044349;28;20047;-81
2022/06/13 02:18:33;;;;;;;11.60;6.03;;;13.70;99.90;;;;;;5045122;28;20048;-81
2022/06/13 02:21:06;;;;;;;15.18;6.03;;;13.70;99.90;;;;;;5045494;28;20098;-80
2022/06/13 02:23:38;;;;;;;13.60;5.75;;;13.70;99.90;;;;;;5043886;28;20072;-81
2022/06/13 02:26:15;;;;;;;19.88;6.45;;;13.70;99.90;;;;;;5027966;28;20502;-80
2022/06/13 02:28:47;;;;;;;15.52;6.35;;;13.70;99.90;;;;;;5045520;28;20037;-80
2022/06/13 02:31:25;;;;;;;13.65;6.18;;;13.70;99.90;;;;;;5044413;28;20032;-81
2022/06/13 02:33:58;;;;;;;17.38;6.00;;;13.70;99.90;;;;;;5045736;28;20037;-80
2022/06/13 02:36:39;;;;;;;13.13;5.80;;;13.70;99.90;;;;;;5044765;28;20091;-81
2022/06/13 02:39:10;;;;;;;19.20;7.05;;;13.70;99.90;;;;;;5044414;28;20119;-81
2022/06/13 02:41:54;;;;;;;16.42;6.30;;;13.70;99.90;;;;;;5044175;28;20128;-80
2022/06/13 02:44:25;;;;;;;;;;;13.70;99.90;;;;;;5027213;28;20044;-81
2022/06/13 02:46:56;;;;;;;14.80;6.18;;;13.80;99.90;;;;;;5045049;28;19928;-81
2022/06/13 02:49:33;;;;;;;13.23;6.00;;;13.80;99.90;;;;;;5049051;28;20109;-81
2022/06/13 02:52:20;;;;;;;12.68;5.97;;;13.80;99.90;;;;;;5064270;28;20037;-81
2022/06/13 02:54:52;;;;;;;15.38;6.47;;;13.80;99.90;;;;;;5031534;28;20033;-79
2022/06/13 02:57:27;;;;;;;14.95;6.20;;;13.80;99.90;;;;;;5032260;28;20033;-80
2022/06/13 03:00:27;;;;;;;12.68;6.50;;;13.90;99.90;;;;;;5048447;28;20094;-80
2022/06/13 03:03:16;;;;;;;12.88;6.28;;;13.80;99.90;;;;;;5047832;28;20053;-81
2022/06/13 03:06:03;;;;;;;17.83;6.72;;;13.90;99.90;;;;;;5047914;28;20069;-81
2022/06/13 03:08:55;;;;;;;14.23;6.18;;;13.90;99.90;;;;;;5048119;28;20091;-82
2022/06/13 03:11:34;;;;;;;13.48;6.45;;;13.90;99.90;;;;;;5046443;28;20090;-81
2022/06/13 03:14:21;;;;;;;19.42;6.57;;;13.80;99.90;;;;;;5046822;28;20036;-80
2022/06/13 03:16:51;;;;;;;16.92;6.70;;;13.80;99.90;;;;;;5049079;28;20091;-80
2022/06/13 03:19:23;;;;;;;17.73;6.18;;;13.80;99.90;;;;;;5049092;28;20472;-80
2022/06/13 03:22:14;;;;;;;12.68;6.05;;;13.80;99.90;;;;;;5048801;28;20039;-81
2022/06/13 03:24:43;;;;;;;15.70;6.00;;;13.80;99.90;;;;;;5044488;28;20123;-81
2022/06/13 03:27:17;;;;;;;16.17;5.90;;;13.80;99.90;;;;;;5032740;28;20045;-81
2022/06/13 03:29:47;;;;;;;13.20;6.65;;;13.80;99.90;;;;;;5048930;28;20426;-80
2022/06/13 03:32:19;;;;;;;13.63;5.93;;;13.80;99.90;;;;;;5049591;28;20072;-81
2022/06/13 03:34:50;;;;;;;14.77;5.50;;;13.80;99.90;;;;;;5046851;28;20036;-81
2022/06/13 03:37:31;;;;;;;13.13;5.60;;;13.80;99.90;;;;;;5048143;28;20123;-80
2022/06/13 03:40:23;;;;;;;15.20;6.00;;;13.80;99.90;;;;;;5048407;28;20457;-80
2022/06/13 03:42:57;;;;;;;12.57;5.07;;;13.80;99.90;;;;;;5029480;28;20040;-80
2022/06/13 03:45:31;;;;;;;12.45;5.28;;;13.80;99.90;;;;;;5046655;28;20138;-81
2022/06/13 03:48:25;;;;;;;14.48;6.22;;;13.80;99.90;;;;;;5030115;28;20037;-80
2022/06/13 03:50:56;;;;;;;12.95;5.47;;;13.80;99.90;;;;;;5047320;28;20525;-81
2022/06/13 03:53:37;;;;;;;11.07;5.30;;;13.80;99.90;;;;;;5047469;28;20040;-81
2022/06/13 03:56:28;;;;;;;13.15;5.72;;;13.80;99.90;;;;;;5046262;28;20041;-81
2022/06/13 03:59:16;;;;;;;13.60;5.43;;;13.80;99.90;;;;;;5045267;28;20049;-79
2022/06/13 04:01:51;;;;;;;11.90;5.35;;;13.70;99.90;;;;;;5048860;28;20048;-80
2022/06/13 04:04:30;;;;;;;14.68;5.18;;;13.80;99.90;;;;;;5045149;28;20059;-81
2022/06/13 04:06:55;;;;;;;14.55;5.80;;;13.80;99.90;;;;;;5045087;28;20411;-80
2022/06/13 04:09:23;;;;;;;11.90;4.78;;;13.90;99.90;;;;;;5059929;28;20033;-80
2022/06/13 04:12:13;;;;;;;11.00;4.90;;;13.90;99.90;;;;;;5047392;28;20041;-80
2022/06/13 04:15:20;;;;;;;9.43;4.18;;;13.90;99.90;;;;;;5046344;28;20178;-80
2022/06/13 04:17:51;;;;;;;11.70;4.70;;;13.90;99.90;;;;;;5047609;28;20036;-80
2022/06/13 04:20:25;;;;;;;11.25;4.60;;;13.90;99.90;;;;;;5046178;28;20059;-80
2022/06/13 04:23:05;;;;;;;7.18;3.80;;;13.90;99.90;;;;;;5047958;28;20051;-80
2022/06/13 04:26:02;;;;;;;10.52;4.05;;;14.00;99.90;;;;;;5044865;28;20040;-81
2022/06/13 04:28:46;;;;;;;11.43;3.95;;;13.90;99.90;;;;;;5049989;28;20037;-81
2022/06/13 04:31:13;;;;;;;10.35;3.90;;;13.90;99.90;;;;;;5031264;28;20477;-80
2022/06/13 04:33:45;;;;;;;12.00;4.15;;;13.90;99.90;;;;;;5031019;28;20126;-81
2022/06/13 04:36:13;;;;;;;8.48;3.70;;;13.90;99.90;;;;;;5051498;28;20037;-81
2022/06/13 04:38:42;;;;;;;12.02;3.75;;;14.00;99.90;;;;;;5048428;28;20060;-80
2022/06/13 04:41:10;;;;;;;7.45;2.80;;;13.90;99.90;;;;;;5047382;28;20037;-80
2022/06/13 04:43:41;;;;;;;6.95;2.70;;;14.00;99.90;;;;;;5052679;28;20037;-80
2022/06/13 04:46:18;;;;;;;6.82;2.90;;;14.10;99.90;;;;;;5052250;28;20131;-81
2022/06/13 04:48:46;;;;;;;7.05;2.60;;;14.20;99.90;;;;;;5052711;28;20044;-80
2022/06/13 04:51:17;;;;;;;9.75;2.50;;;14.30;99.90;;;;;;5036044;28;20517;-80
2022/06/13 04:53:47;;;;;;;9.27;2.35;;;14.40;99.90;;;;;;5052336;28;20481;-79
2022/06/13 04:56:13;;;;;;;6.03;2.20;;;14.60;99.90;;;;;;5052399;28;20120;-80
2022/06/13 04:58:41;;;;;;;8.63;2.35;;;14.60;99.90;;;;;;5052685;28;20079;-81
2022/06/13 05:01:24;;;;;;;8.25;2.50;;;14.60;99.90;;;;;;5052664;28;20076;-80
2022/06/13 05:03:51;;;;;;;11.75;2.22;;;14.50;99.90;;;;;;5050806;28;20561;-81
2022/06/13 05:06:35;;;;;;;7.43;2.33;;;14.40;99.90;;;;;;5048222;28;20051;-81
2022/06/13 05:09:04;;;;;;;9.82;2.50;;;14.20;99.90;;;;;;5030099;28;20033;-83
2022/06/13 05:11:45;;;;;;;7.65;1.92;;;13.80;99.90;;;;;;5046024;28;20039;-81
2022/06/13 05:14:20;;;;;;;3.40;1.40;;;13.60;99.90;;;;;;5045805;28;20045;-82
2022/06/13 05:17:04;;;;;;;3.72;1.30;;;13.50;99.90;;;;;;5045248;28;20043;-82
2022/06/13 05:19:41;;;;;;;4.57;1.70;;;13.30;99.90;;;;;;5044163;28;20064;-84
2022/06/13 05:22:25;;;;;;;4.32;1.70;;;13.30;99.90;;;;;;5048500;28;20033;-80
2022/06/13 05:25:24;;;;;;;3.75;1.40;;;13.30;99.90;;;;;;5049498;28;20045;-85
2022/06/13 05:27:50;;;;;;;3.40;1.25;;;13.40;99.90;;;;;;5044187;28;20080;-82
2022/06/13 05:30:17;;;;;;;5.75;1.30;;;13.40;99.90;;;;;;5030284;28;20084;-80
2022/06/13 05:32:43;;;;;;;4.32;1.30;;;13.30;99.90;;;;;;5038248;28;20591;-81
2022/06/13 05:35:30;;;;;;;3.47;1.23;;;13.20;99.90;;;;;;5031702;28;20048;-84
2022/06/13 05:38:00;;;;;;;2.97;1.40;;;13.20;99.90;;;;;;5032457;28;20384;-82
2022/06/13 05:40:25;;;;;;;2.83;1.33;;;13.10;99.90;;;;;;5049573;28;20120;-81
2022/06/13 05:42:52;;;;;;;3.15;1.38;;;13.10;99.90;;;;;;5049405;28;20515;-80
2022/06/13 05:45:20;;;;;;;2.42;1.00;;;13.20;99.90;;;;;;5048324;28;20033;-82
2022/06/13 05:47:48;;;;;;;3.35;1.20;;;13.40;99.90;;;;;;5047963;28;20106;-81
2022/06/13 05:50:23;;;;;;;5.20;1.27;;;13.50;99.90;;;;;;5050274;28;20033;-82
2022/06/13 05:52:50;;;;;;;3.25;1.10;;;13.70;99.90;;;;;;5050248;28;20131;-82
2022/06/13 05:55:15;;;;;;;3.75;0.90;;;13.90;99.90;;;;;;5032994;28;20037;-82
2022/06/13 05:57:41;;;;;;;3.95;0.93;;;13.90;99.90;;;;;;5050105;28;20400;-82
2022/06/13 06:00:14;;;;;;;4.82;1.10;;;14.00;99.90;;;;;;5050579;28;20490;-84
2022/06/13 06:02:40;;;;;;;3.55;1.13;;;13.90;99.90;;;;;;5050037;28;20045;-82
2022/06/13 06:05:06;;;;;;;4.53;1.63;;;13.90;99.90;;;;;;5049709;28;20575;-82
2022/06/13 06:07:33;;;;;;;6.28;1.05;;;14.00;99.90;;;;;;5033796;28;20127;-83
2022/06/13 06:10:00;;;;;;;3.28;1.15;;;14.00;99.90;;;;;;5029208;28;20445;-81
2022/06/13 06:12:25;;;;;;;2.20;1.02;;;14.10;99.90;;;;;;5038372;28;20082;-81
2022/06/13 06:14:51;;;;;;;4.65;1.30;;;14.30;99.90;;;;;;5045184;28;20037;-81
2022/06/13 06:17:16;;;;;;;3.55;1.10;;;14.60;99.90;;;;;;5029673;28;20083;-82
2022/06/13 06:19:42;;;;;;;6.70;1.80;;;14.80;99.90;;;;;;5045064;28;20044;-81
2022/06/13 06:22:08;;;;;;;4.35;1.20;;;15.00;99.90;;;;;;5042332;28;20110;-82
2022/06/13 06:24:33;;;;;;;5.38;1.08;;;15.10;99.90;;;;;;5045234;28;20163;-81
2022/06/13 06:26:59;;;;;;;4.13;1.40;;;15.20;99.90;;;;;;5048085;28;20038;-83
2022/06/13 06:29:24;;;;;;;7.60;1.10;;;15.40;99.90;;;;;;5049297;28;20045;-82
2022/06/13 06:31:50;;;;;;;4.40;1.20;;;15.70;99.90;;;;;;5050058;28;20101;-84
2022/06/13 06:34:16;;;;;;;6.93;1.40;;;15.70;99.90;;;;;;5048636;28;20091;-82
2022/06/13 06:36:41;;;;;;;6.53;1.35;;;15.60;99.90;;;;;;5050531;28;20128;-82
2022/06/13 06:39:07;;;;;;;6.45;1.40;;;15.50;99.90;;;;;;5033921;28;20473;-80
2022/06/13 06:41:33;;;;;;;7.38;1.30;;;15.50;99.90;;;;;;5050545;28;20407;-81
2022/06/13 06:43:58;;;;;;;5.32;1.48;;;15.40;99.90;;;;;;5051691;28;20044;-82
2022/06/13 06:46:24;;;;;;;2.83;1.23;;;15.70;99.90;;;;;;5035090;28;20095;-81
2022/06/13 06:48:51;;;;;;;6.63;1.52;;;15.90;99.90;;;;;;5051052;28;20044;-81
2022/06/13 06:51:17;;;;;;;5.85;1.30;;;16.20;99.90;;;;;;5034554;28;20052;-81
2022/06/13 07:01:55;;;;;;;7.38;1.45;;;16.20;99.90;;;;;;5050759;28;20044;-81
2022/06/13 07:04:21;;;;;;;5.05;1.25;;;16.10;99.90;;;;;;5050276;28;20367;-81
2022/06/13 07:06:46;;;;;;;3.53;1.40;;;15.90;99.90;;;;;;5050162;28;20095;-81
2022/06/13 07:09:12;;;;;;;6.43;1.90;;;15.90;99.90;;;;;;5050831;28;20033;-82
2022/06/13 07:11:54;;;;;;;3.72;1.33;;;15.70;99.90;;;;;;5050884;28;20076;-81
2022/06/13 07:14:21;;;;;;;5.88;1.50;;;15.60;99.90;;;;;;5028365;28;20025;-83
2022/06/13 07:16:46;;;;;;;6.20;1.40;;;15.30;99.90;;;;;;5030779;28;20541;-81
2022/06/13 07:19:12;;;;;;;6.68;1.60;;;15.20;99.90;;;;;;5041248;28;20037;-81
2022/06/13 07:21:38;;;;;;;4.53;1.50;;;15.00;99.90;;;;;;5051499;28;20053;-82
2022/06/13 07:24:03;;;;;;;7.65;1.55;;;14.80;99.90;;;;;;5049319;28;20037;-80
2022/06/13 07:26:31;;;;;;;5.40;1.48;;;14.70;99.90;;;;;;5050479;28;20040;-81
2022/06/13 07:28:57;;;;;;;7.30;1.50;;;14.80;99.90;;;;;;5051134;28;20410;-80
2022/06/13 07:31:38;;;;;;;7.88;1.60;;;15.20;99.90;;;;;;5049877;28;20048;-80
2022/06/13 07:34:06;;;;;;;6.32;1.58;;;15.50;99.90;;;;;;5049577;28;20041;-83
2022/06/13 07:36:32;;;;;;;4.63;1.25;;;15.40;99.90;;;;;;5053700;28;20128;-83
2022/06/13 07:38:57;;;;;;;6.28;1.27;;;15.10;99.90;;;;;;5053869;28;20040;-83
2022/06/13 07:41:24;;;;;;;4.68;1.23;;;14.80;99.90;;;;;;5037053;28;20048;-83
2022/06/13 07:43:52;;;;;;;5.57;1.40;;;14.60;99.90;;;;;;5046840;28;20495;-83
2022/06/13 07:46:20;;;;;;;7.50;1.58;;;14.40;99.90;;;;;;5038078;28;20457;-83
2022/06/13 07:48:48;;;;;;;5.38;1.20;;;14.30;99.90;;;;;;5051118;28;20029;-82
2022/06/13 07:51:13;;;;;;;6.53;1.67;;;14.40;99.90;;;;;;5053700;28;20048;-82
2022/06/13 07:53:39;;;;;;;6.10;1.55;;;14.70;99.90;;;;;;5051139;28;20045;-79
2022/06/13 07:56:05;;;;;;;8.40;1.65;;;15.10;99.90;;;;;;5051335;28;20057;-82
2022/06/13 07:58:34;;;;;;;6.78;1.83;;;15.60;99.90;;;;;;5051585;28;20121;-83
2022/06/13 08:01:00;;;;;;;7.78;1.58;;;15.90;99.90;;;;;;5034738;28;20119;-80
2022/06/13 08:03:29;;;;;;;5.82;1.20;;;15.90;99.90;;;;;;5051691;28;20131;-81
2022/06/13 08:05:56;;;;;;;3.53;1.00;;;15.60;99.90;;;;;;5050385;28;20082;-82
2022/06/13 08:08:22;;;;;;;3.53;1.00;;;15.50;99.90;;;;;;5053100;28;20041;-81
2022/06/13 08:10:49;;;;;;;9.50;1.55;;;15.20;99.90;;;;;;5036497;28;20041;-83
2022/06/13 08:13:17;;;;;;;3.65;1.00;;;15.20;99.90;;;;;;5053095;28;20036;-81
2022/06/13 08:15:43;;;;;;;6.78;1.00;;;15.40;99.90;;;;;;5052020;28;20513;-81
2022/06/13 08:18:11;;;;;;;5.63;1.00;;;15.80;99.90;;;;;;5052965;28;20037;-80
2022/06/13 08:20:38;;;;;;;3.25;0.98;;;16.20;99.90;;;;;;5053156;28;20071;-81
2022/06/13 08:23:06;;;;;;;3.53;0.90;;;16.20;99.90;;;;;;5052710;28;20045;-82
2022/06/13 08:25:34;;;;;;;6.15;0.85;;;15.80;99.90;;;;;;5052456;28;20120;-81
2022/06/13 08:28:00;;;;;;;4.68;0.90;;;15.90;99.90;;;;;;5052837;28;20045;-79
2022/06/13 08:30:35;;;;;;;4.97;1.05;;;16.10;99.90;;;;;;5051630;28;20037;-80
2022/06/13 08:33:01;;;;;;;4.80;1.00;;;16.30;99.90;;;;;;5053545;28;20041;-82
2022/06/13 08:35:26;;;;;;;2.92;0.93;;;16.60;99.90;;;;;;5052226;28;20052;-82
2022/06/13 08:37:52;;;;;;;4.65;1.70;;;16.50;99.90;;;;;;5052871;28;20098;-80
2022/06/13 08:40:17;;;;;;;7.43;1.00;;;16.60;99.90;;;;;;5052534;28;20096;-80
2022/06/13 08:42:51;;;;;;;5.75;1.00;;;16.70;99.90;;;;;;5053102;28;20044;-80
2022/06/13 08:45:23;;;;;;;;;;;16.80;99.90;;;;;;5035253;28;20572;-80
2022/06/13 08:48:08;;;;;;;8.02;1.15;;;16.50;99.90;;;;;;5052089;28;19925;-81
2022/06/13 08:50:37;;;;;;;8.90;1.00;;;16.60;99.90;;;;;;5050239;28;20067;-76
2022/06/13 08:53:20;;;;;;;5.13;1.10;;;16.80;99.90;;;;;;5040192;28;20470;-79
2022/06/13 08:55:55;;;;;;;7.70;1.33;;;17.00;99.90;;;;;;5043372;28;20025;-78
2022/06/13 08:58:59;;;;;;;5.50;1.00;;;17.40;99.90;;;;;;5051205;28;20124;-79
2022/06/13 09:01:34;;;;;;;4.88;1.45;;;17.10;99.90;;;;;;5007543;28;20037;-79
2022/06/13 09:04:14;;;;;;;9.77;1.50;;;16.60;99.90;;;;;;5050517;28;20134;-79
2022/06/13 09:06:52;;;;;;;5.18;1.00;;;16.30;99.90;;;;;;5038488;28;20041;-77
2022/06/13 09:09:29;;;;;;;8.02;1.17;;;16.40;99.90;;;;;;5050835;28;20037;-78
2022/06/13 09:12:12;;;;;;;6.45;1.10;;;16.70;99.90;;;;;;5051114;28;20043;-77
2022/06/13 09:14:55;;;;;;;5.28;1.23;;;17.20;99.90;;;;;;5050113;28;20041;-79
2022/06/13 09:17:31;;;;;;;3.45;1.10;;;17.10;99.90;;;;;;5033990;28;20495;-78
2022/06/13 09:20:03;;;;;;;6.47;1.48;;;17.30;99.90;;;;;;5050310;28;20045;-80
2022/06/13 09:22:50;;;;;;;6.00;1.35;;;17.30;99.90;;;;;;5049864;28;20037;-78
2022/06/13 09:25:42;;;;;;;8.82;1.50;;;17.10;99.90;;;;;;5048923;28;20037;-79
2022/06/13 09:28:37;;;;;;;3.20;0.90;;;16.90;99.90;;;;;;5041971;28;20079;-79
2022/06/13 09:31:13;;;;;;;7.47;1.40;;;16.60;99.90;;;;;;5036092;28;20120;-79
2022/06/13 09:34:13;;;;;;;7.20;1.10;;;16.40;99.90;;;;;;5049269;28;20048;-77
2022/06/13 09:37:00;;;;;;;9.70;1.80;;;16.10;99.90;;;;;;5049402;28;20049;-78
2022/06/13 09:39:26;;;;;;;11.15;1.80;;;16.00;99.90;;;;;;5050759;28;20048;-79
2022/06/13 09:42:06;;;;;;;9.73;1.63;;;15.90;99.90;;;;;;5049485;28;20494;-79
2022/06/13 09:44:44;;;;;;;9.98;1.63;;;16.20;99.90;;;;;;5030724;28;20048;-79
2022/06/13 09:47:20;;;;;;;9.32;1.85;;;16.50;99.90;;;;;;5049621;28;20048;-78
2022/06/13 09:49:53;;;;;;;6.93;1.52;;;16.90;99.90;;;;;;5048761;28;20039;-78
2022/06/13 09:52:56;;;;;;;4.35;1.27;;;17.20;99.90;;;;;;5050623;28;20032;-78
2022/06/13 09:55:47;;;;;;;4.55;1.13;;;17.00;99.90;;;;;;5035509;28;20033;-77
2022/06/13 09:58:51;;;;;;;6.60;1.52;;;16.70;99.90;;;;;;5031828;28;20422;-79
2022/06/13 10:02:01;;;;;;;6.47;1.75;;;16.60;99.90;;;;;;5046755;28;20048;-78
2022/06/13 10:04:39;;;;;;;5.97;1.38;;;17.10;99.90;;;;;;5019060;28;20052;-77
2022/06/13 10:07:20;;;;;;;6.50;1.20;;;17.50;99.90;;;;;;5044723;28;20041;-81
2022/06/13 10:10:03;;;;;;;10.93;1.50;;;17.50;99.90;;;;;;5040227;28;20034;-77
2022/06/13 10:12:47;;;;;;;8.45;1.73;;;17.10;99.90;;;;;;5046137;28;20090;-77
2022/06/13 10:15:42;;;;;;;6.35;1.50;;;16.80;99.90;;;;;;5045751;28;20062;-80
2022/06/13 10:18:20;;;;;;;7.65;1.65;;;16.40;99.90;;;;;;5062955;28;20041;-79
2022/06/13 10:20:53;;;;;;;6.15;1.42;;;16.40;99.90;;;;;;5045709;28;20120;-78
2022/06/13 10:23:48;;;;;;;7.93;1.30;;;16.80;99.90;;;;;;5064304;28;20085;-80
2022/06/13 10:26:36;;;;;;;5.78;1.30;;;17.00;99.90;;;;;;5045695;28;20119;-78
2022/06/13 10:29:33;;;;;;;8.52;1.58;;;16.90;99.90;;;;;;5046586;28;20056;-78
2022/06/13 10:32:16;;;;;;;8.25;1.83;;;16.80;99.90;;;;;;5048539;28;20768;-78
2022/06/13 10:34:53;;;;;;;4.97;1.50;;;16.80;99.90;;;;;;5044801;28;20039;-77
2022/06/13 10:37:32;;;;;;;7.18;1.65;;;16.80;99.90;;;;;;5044773;28;20525;-76
2022/06/13 10:40:01;;;;;;;6.13;1.50;;;16.70;99.90;;;;;;5049930;28;20511;-80
2022/06/13 10:42:31;;;;;;;8.25;1.63;;;16.60;99.90;;;;;;5043614;28;20458;-78
2022/06/13 10:44:57;;;;;;;7.38;1.70;;;16.50;99.90;;;;;;5046203;28;20040;-77
2022/06/13 10:47:51;;;;;;;10.90;1.98;;;16.70;99.90;;;;;;5048385;28;20037;-79
2022/06/13 10:50:41;;;;;;;8.00;1.35;;;16.60;99.90;;;;;;5030040;28;20045;-78
2022/06/13 10:53:26;;;;;;;9.50;1.80;;;16.50;99.90;;;;;;5043452;28;20069;-80
2022/06/13 10:55:55;;;;;;;6.65;1.27;;;16.50;99.90;;;;;;5041185;28;20429;-78
2022/06/13 10:58:50;;;;;;;9.02;1.77;;;16.50;99.90;;;;;;5051351;28;20044;-82
2022/06/13 11:01:22;;;;;;;6.10;1.75;;;16.50;99.90;;;;;;5043427;28;20037;-80
2022/06/13 11:04:18;;;;;;;9.40;1.67;;;16.60;99.90;;;;;;5046979;28;20048;-77
2022/06/13 11:06:48;;;;;;;6.05;1.63;;;16.70;99.90;;;;;;5032948;28;20045;-79
2022/06/13 11:09:38;;;;;;;9.00;2.10;;;16.60;99.90;;;;;;5036474;28;20041;-82
2022/06/13 11:12:17;;;;;;;7.05;1.63;;;16.60;99.90;;;;;;5051802;28;20033;-79
2022/06/13 11:23:15;;;;;;;13.63;2.53;;;17.10;99.90;;;;;;5052614;28;20049;-81
2022/06/13 11:25:40;;;;;;;10.73;1.98;;;17.10;99.90;;;;;;5037832;28;20047;-79
2022/06/13 11:28:12;;;;;;;9.30;2.33;;;17.00;99.90;;;;;;5045287;28;20041;-78
2022/06/13 11:30:46;;;;;;;7.45;2.10;;;17.00;99.90;;;;;;5035066;28;20686;-80
2022/06/13 11:33:18;;;;;;;9.77;1.70;;;17.40;99.90;;;;;;5049519;28;20112;-78
2022/06/13 11:35:59;;;;;;;7.40;1.50;;;17.30;99.90;;;;;;5049157;28;20041;-81
2022/06/13 11:38:36;;;;;;;6.40;1.65;;;17.20;99.90;;;;;;5036733;28;20036;-79
2022/06/13 11:41:15;;;;;;;11.13;2.13;;;17.00;99.90;;;;;;5052088;28;20029;-79
2022/06/13 11:44:07;;;;;;;9.35;2.53;;;16.80;99.90;;;;;;5050918;28;20049;-80
2022/06/13 11:47:02;;;;;;;6.45;1.60;;;16.80;99.90;;;;;;5050937;28;20061;-80
2022/06/13 11:49:35;;;;;;;;;;;17.10;99.90;;;;;;5051142;28;20498;-78
2022/06/13 11:55:24;;;;;;;11.52;1.80;;;17.90;99.90;;;;;;5052580;28;20091;-79
2022/06/13 11:57:54;;;;;;;9.02;1.67;;;18.00;99.90;;;;;;5052811;28;20040;-80
2022/06/13 12:00:19;;;;;;;8.05;1.38;;;17.90;99.90;;;;;;5050684;28;20077;-78
2022/06/13 12:02:48;;;;;;;11.23;1.70;;;17.80;99.90;;;;;;5053174;28;20430;-80
2022/06/13 12:05:19;;;;;;;8.65;1.50;;;17.50;99.90;;;;;;5049515;28;20130;-80
2022/06/13 12:07:58;;;;;;;8.48;1.80;;;17.20;99.90;;;;;;5051507;28;20041;-80
2022/06/13 12:10:26;;;;;;;9.00;2.03;;;17.10;99.90;;;;;;5052575;28;20044;-79
2022/06/13 12:12:52;;;;;;;10.30;1.55;;;17.10;99.90;;;;;;5052211;28;20037;-80
2022/06/13 12:15:20;;;;;;;7.65;1.70;;;17.00;99.90;;;;;;5034159;28;20384;-80
2022/06/13 12:18:04;;;;;;;8.38;1.70;;;16.90;99.90;;;;;;5044527;28;20047;-79
2022/06/13 12:20:30;;;;;;;8.10;1.73;;;17.20;99.90;;;;;;5047204;28;20064;-80
2022/06/13 12:23:07;;;;;;;10.00;1.85;;;17.10;99.90;;;;;;5049891;28;20071;-78
2022/06/13 12:25:50;;;;;;;9.75;1.80;;;17.20;99.90;;;;;;5049885;28;20131;-80
2022/06/13 12:28:21;;;;;;;9.35;1.90;;;17.20;99.90;;;;;;5050745;28;20191;-80
2022/06/13 12:31:13;;;;;;;7.55;1.60;;;17.60;99.90;;;;;;5045326;28;20086;-79
2022/06/13 12:33:59;;;;;;;7.25;1.27;;;17.60;99.90;;;;;;5050620;28;20055;-80
2022/06/13 12:36:33;;;;;;;6.07;1.55;;;17.50;99.90;;;;;;5033480;28;20040;-80
2022/06/13 12:39:06;;;;;;;7.10;1.25;;;17.30;99.90;;;;;;5034158;28;20041;-79
2022/06/13 12:41:37;;;;;;;4.88;1.20;;;17.10;99.90;;;;;;5049480;28;20036;-80
2022/06/13 12:44:40;;;;;;;6.03;1.50;;;17.00;99.90;;;;;;5050951;28;20094;-78
2022/06/13 12:47:27;;;;;;;8.07;1.50;;;17.00;99.90;;;;;;5044186;28;20033;-80
2022/06/13 12:50:12;;;;;;;4.85;1.20;;;17.00;99.90;;;;;;5049796;28;20035;-79
2022/06/13 12:52:40;;;;;;;7.50;1.90;;;17.10;99.90;;;;;;5052328;28;20044;-79
2022/06/13 12:55:37;;;;;;;8.32;2.03;;;17.10;99.90;;;;;;5048103;28;20029;-80
2022/06/13 12:58:26;;;;;;;5.82;1.33;;;17.00;99.90;;;;;;5054948;28;20509;-77
2022/06/13 13:01:06;;;;;;;7.03;1.27;;;17.10;99.90;;;;;;5044443;28;20052;-79
2022/06/13 13:04:06;;;;;;;5.43;1.30;;;17.10;99.90;;;;;;5050942;28;20045;-79
2022/06/13 13:06:53;;;;;;;3.55;1.05;;;17.30;99.90;;;;;;5049710;28;20136;-80
2022/06/13 13:09:43;;;;;;;5.47;1.40;;;17.20;99.90;;;;;;5051732;28;20102;-80
2022/06/13 13:12:26;;;;;;;5.65;1.13;;;17.10;99.90;;;;;;5051343;28;20044;-79
2022/06/13 13:15:11;;;;;;;5.95;1.33;;;17.00;99.90;;;;;;5044853;28;20417;-78
2022/06/13 13:17:48;;;;;;;4.60;1.33;;;16.90;99.90;;;;;;5050491;28;20037;-80
2022/06/13 13:20:21;;;;;;;8.48;1.38;;;16.80;99.90;;;;;;5051042;28;20049;-80
2022/06/13 13:22:52;;;;;;;;;;;17.20;99.90;;;;;;5050579;28;20415;-80
2022/06/13 13:25:27;;;;;;;5.18;1.27;;;17.60;99.90;;;;;;5046222;28;20310;-77
2022/06/13 13:28:13;;;;;;;6.28;1.20;;;17.70;99.90;;;;;;5051319;28;20047;-79
2022/06/13 13:31:02;;;;;;;4.53;1.02;;;17.90;99.90;;;;;;5044310;28;20217;-78
2022/06/13 13:34:01;;;;;;;7.32;1.00;;;18.00;99.90;;;;;;5046952;28;20051;-79
2022/06/13 13:36:50;;;;;;;6.85;1.20;;;18.10;99.90;;;;;;5049012;28;20037;-78
2022/06/13 13:39:28;;;;;;;5.28;1.00;;;18.00;99.90;;;;;;5032616;28;20368;-81
2022/06/13 13:42:00;;;;;;;5.55;1.40;;;17.70;99.90;;;;;;5049331;28;20116;-79
2022/06/13 13:45:05;;;;;;;4.78;1.00;;;17.60;99.90;;;;;;5047682;28;20055;-77
2022/06/13 13:47:34;;;;;;;7.13;1.10;;;17.60;99.90;;;;;;5048653;28;20529;-78
2022/06/13 13:50:08;;;;;;;3.92;1.00;;;17.70;99.90;;;;;;5050875;28;20491;-78